Time;durP1;ratioP1;P1;durP2;ratioP2;P2;SDS_P1;SDS_P2;PMS_P1;PMS_P2;Temp;Humidity;BMP_temperature;BMP_pressure;BME280_temperature;BME280_humidity;BME280_pressure;Samples;Min_cycle;Max_cycle;Signal;HPM_P1;HPM_P2
2023/09/03 00:00:15;;;;;;;13.20;8.80;;;17.20;99.90;;;;;;5224757;28;20274;-43
2023/09/03 00:02:45;;;;;;;18.80;9.77;;;17.30;99.90;;;;;;5226777;28;20532;-44
2023/09/03 00:05:16;;;;;;;10.17;8.20;;;17.20;99.90;;;;;;5228081;28;20481;-43
2023/09/03 00:07:49;;;;;;;12.27;8.77;;;17.20;99.90;;;;;;5225029;28;20203;-43
2023/09/03 00:10:20;;;;;;;7.73;6.93;;;17.20;99.90;;;;;;5218943;28;20175;-44
2023/09/03 00:12:50;;;;;;;8.27;7.37;;;17.20;99.90;;;;;;5222447;28;20421;-44
2023/09/03 00:15:25;;;;;;;11.73;8.00;;;17.30;99.90;;;;;;5239483;28;20455;-44
2023/09/03 00:17:55;;;;;;;11.70;7.27;;;17.20;99.90;;;;;;5220412;28;20193;-44
2023/09/03 00:20:26;;;;;;;10.07;7.33;;;17.20;99.90;;;;;;5220574;28;20511;-44
2023/09/03 00:22:57;;;;;;;9.43;7.67;;;17.20;99.90;;;;;;5206032;28;20190;-46
2023/09/03 00:25:27;;;;;;;13.40;8.90;;;17.20;99.90;;;;;;5219053;28;20263;-44
2023/09/03 00:27:58;;;;;;;14.77;8.60;;;17.20;99.90;;;;;;5224310;28;20213;-43
2023/09/03 00:30:28;;;;;;;11.00;8.17;;;17.20;99.90;;;;;;5221239;28;20184;-44
2023/09/03 00:32:59;;;;;;;8.30;7.60;;;17.20;99.90;;;;;;5221520;28;20202;-44
2023/09/03 00:35:29;;;;;;;9.33;7.37;;;17.20;99.90;;;;;;5221359;28;20187;-43
2023/09/03 00:38:00;;;;;;;8.80;7.20;;;17.30;99.90;;;;;;5222732;28;20550;-43
2023/09/03 00:40:38;;;;;;;10.20;7.60;;;17.20;99.90;;;;;;5223174;28;20663;-42
2023/09/03 00:43:09;;;;;;;13.23;7.70;;;17.30;99.90;;;;;;5219121;28;20188;-43
2023/09/03 00:45:42;;;;;;;11.87;7.93;;;17.20;99.90;;;;;;5219474;28;20557;-44
2023/09/03 00:48:16;;;;;;;11.73;7.90;;;17.30;99.90;;;;;;5221584;28;20226;-43
2023/09/03 00:50:48;;;;;;;8.17;7.07;;;17.30;99.90;;;;;;5218416;28;20866;-43
2023/09/03 00:53:20;;;;;;;7.53;6.93;;;17.20;99.90;;;;;;5216325;28;20437;-44
2023/09/03 00:55:50;;;;;;;8.23;7.40;;;17.30;99.90;;;;;;5220716;28;20950;-45
2023/09/03 00:58:21;;;;;;;9.87;7.43;;;17.30;99.90;;;;;;5232439;22;20911;-46
2023/09/03 01:00:52;;;;;;;13.27;8.60;;;17.30;99.90;;;;;;5218581;28;20309;-46
2023/09/03 01:03:25;;;;;;;10.43;7.63;;;17.30;99.90;;;;;;5221101;28;20219;-46
2023/09/03 01:05:56;;;;;;;10.23;7.70;;;17.20;99.90;;;;;;5206498;28;20480;-46
2023/09/03 01:08:28;;;;;;;8.90;7.10;;;17.20;99.90;;;;;;5217040;28;20485;-49
2023/09/03 01:11:22;;;;;;;8.30;6.77;;;17.20;99.90;;;;;;5233333;28;20438;-46
2023/09/03 01:14:02;;;;;;;9.03;7.03;;;17.20;99.90;;;;;;5224800;28;20573;-47
2023/09/03 01:16:36;;;;;;;9.37;8.27;;;17.20;99.90;;;;;;5216820;28;20480;-48
2023/09/03 01:19:35;;;;;;;8.17;7.03;;;17.20;99.90;;;;;;5214971;28;20440;-46
2023/09/03 01:22:36;;;;;;;11.80;7.50;;;17.20;99.90;;;;;;5217475;28;20442;-45
2023/09/03 01:25:28;;;;;;;8.10;6.90;;;17.20;99.90;;;;;;5220960;28;20433;-46
2023/09/03 01:28:21;;;;;;;8.43;7.20;;;17.20;99.90;;;;;;5215792;28;20835;-46
2023/09/03 01:31:00;;;;;;;8.30;7.43;;;17.20;99.90;;;;;;5216510;28;20543;-47
2023/09/03 01:33:32;;;;;;;11.03;7.70;;;17.20;99.90;;;;;;5220998;28;20450;-45
2023/09/03 01:36:06;;;;;;;7.53;6.73;;;17.20;99.90;;;;;;5223935;28;20444;-47
2023/09/03 01:38:37;;;;;;;10.57;8.13;;;17.20;99.90;;;;;;5219693;28;20458;-46
2023/09/03 01:41:08;;;;;;;8.67;7.77;;;17.20;99.90;;;;;;5224542;28;20452;-46
2023/09/03 01:43:38;;;;;;;9.67;6.70;;;17.10;99.90;;;;;;5220130;28;20191;-46
2023/09/03 01:46:12;;;;;;;8.20;6.70;;;17.10;99.90;;;;;;5238509;28;20495;-46
2023/09/03 01:48:55;;;;;;;8.93;8.03;;;17.10;99.90;;;;;;5217748;28;20293;-46
2023/09/03 01:51:48;;;;;;;10.40;8.10;;;17.00;99.90;;;;;;5243692;28;20459;-46
2023/09/03 01:54:27;;;;;;;15.77;7.40;;;17.00;99.90;;;;;;5223977;28;20425;-46
2023/09/03 01:57:09;;;;;;;13.20;8.80;;;17.00;99.90;;;;;;5216775;28;20461;-46
2023/09/03 01:59:44;;;;;;;9.50;7.77;;;16.90;99.90;;;;;;5224187;28;20469;-45
2023/09/03 02:02:17;;;;;;;12.00;7.33;;;16.80;99.90;;;;;;5221363;28;21008;-45
2023/09/03 02:04:47;;;;;;;11.90;7.37;;;16.70;99.90;;;;;;5212539;28;20477;-44
2023/09/03 02:07:18;;;;;;;8.17;7.33;;;16.70;99.90;;;;;;5223118;28;20975;-46
2023/09/03 02:09:49;;;;;;;7.97;7.07;;;16.60;99.90;;;;;;5225131;28;20183;-48
2023/09/03 02:12:23;;;;;;;12.10;8.10;;;16.60;99.90;;;;;;5226961;28;20619;-45
2023/09/03 02:14:54;;;;;;;9.70;7.70;;;16.50;99.90;;;;;;5214977;28;20178;-48
2023/09/03 02:17:26;;;;;;;11.90;9.27;;;16.50;99.90;;;;;;5216900;28;20453;-46
2023/09/03 02:19:57;;;;;;;12.83;8.50;;;16.50;99.90;;;;;;5223250;28;20185;-46
2023/09/03 02:22:27;;;;;;;10.17;7.93;;;16.50;99.90;;;;;;5234836;28;20438;-46
2023/09/03 02:24:58;;;;;;;18.47;7.87;;;16.40;99.90;;;;;;5232268;28;20434;-46
2023/09/03 02:27:29;;;;;;;7.60;6.90;;;16.30;99.90;;;;;;5237106;28;20195;-46
2023/09/03 02:29:59;;;;;;;13.53;7.73;;;16.30;99.90;;;;;;5221649;28;20231;-47
2023/09/03 02:32:30;;;;;;;8.97;8.07;;;16.30;99.90;;;;;;5216370;28;20214;-48
2023/09/03 02:35:00;;;;;;;17.40;9.50;;;16.20;99.90;;;;;;5220760;28;20638;-46
2023/09/03 02:37:31;;;;;;;11.63;8.73;;;16.20;99.90;;;;;;5237600;28;20199;-47
2023/09/03 02:40:02;;;;;;;8.10;7.20;;;16.20;99.90;;;;;;5221441;28;20179;-46
2023/09/03 02:42:33;;;;;;;11.03;8.70;;;16.10;99.90;;;;;;5222138;28;20175;-46
2023/09/03 02:45:04;;;;;;;11.87;8.83;;;16.10;99.90;;;;;;5217384;28;20819;-46
2023/09/03 02:47:34;;;;;;;9.43;8.07;;;16.10;99.90;;;;;;5226415;28;20217;-46
2023/09/03 02:50:05;;;;;;;10.77;7.93;;;16.10;99.90;;;;;;5240293;28;20441;-47
2023/09/03 02:52:36;;;;;;;9.30;8.03;;;16.00;99.90;;;;;;5223112;28;20184;-48
2023/09/03 02:55:07;;;;;;;11.43;8.63;;;16.00;99.90;;;;;;5226176;28;20987;-47
2023/09/03 02:57:38;;;;;;;9.53;8.47;;;16.00;99.90;;;;;;5227735;28;20230;-46
2023/09/03 03:00:09;;;;;;;10.03;8.67;;;15.90;99.90;;;;;;5222615;28;20445;-47
2023/09/03 03:02:41;;;;;;;9.93;8.70;;;15.90;99.90;;;;;;5225474;28;20179;-46
2023/09/03 03:05:11;;;;;;;14.67;8.90;;;15.90;99.90;;;;;;5221033;28;20476;-45
2023/09/03 03:07:42;;;;;;;11.30;8.67;;;15.90;99.90;;;;;;5232910;28;20983;-46
2023/09/03 03:10:13;;;;;;;10.57;8.10;;;15.80;99.90;;;;;;5224058;28;22262;-45
2023/09/03 03:12:44;;;;;;;9.50;8.60;;;15.90;99.90;;;;;;5211642;28;20270;-45
2023/09/03 03:15:15;;;;;;;8.77;7.90;;;15.80;99.90;;;;;;5226509;28;20237;-45
2023/09/03 03:17:46;;;;;;;9.57;8.60;;;15.80;99.90;;;;;;5242547;28;21061;-47
2023/09/03 03:20:17;;;;;;;9.47;8.40;;;15.80;99.90;;;;;;5242903;28;20198;-46
2023/09/03 03:22:47;;;;;;;9.37;8.57;;;15.80;99.90;;;;;;5220791;28;20191;-46
2023/09/03 03:25:18;;;;;;;12.37;9.13;;;15.70;99.90;;;;;;5227884;28;20191;-46
2023/09/03 03:27:49;;;;;;;9.50;8.00;;;15.70;99.90;;;;;;5233005;28;20683;-46
2023/09/03 03:30:19;;;;;;;10.30;8.47;;;15.70;99.90;;;;;;5226835;28;20225;-46
2023/09/03 03:32:52;;;;;;;8.87;8.00;;;15.80;99.90;;;;;;5242603;28;20182;-45
2023/09/03 03:35:23;;;;;;;14.03;8.40;;;15.80;99.90;;;;;;5230105;28;20236;-46
2023/09/03 03:37:53;;;;;;;10.73;8.23;;;15.80;99.90;;;;;;5230995;28;20827;-46
2023/09/03 03:40:24;;;;;;;14.83;9.03;;;15.80;99.90;;;;;;5220724;28;20639;-46
2023/09/03 03:42:54;;;;;;;11.57;9.23;;;15.80;99.90;;;;;;5223197;28;20187;-46
2023/09/03 03:45:25;;;;;;;8.73;7.97;;;15.80;99.90;;;;;;5218429;28;20188;-47
2023/09/03 03:47:56;;;;;;;10.47;8.30;;;15.80;99.90;;;;;;5221033;28;20533;-45
2023/09/03 03:50:29;;;;;;;8.43;7.03;;;15.80;99.90;;;;;;5221268;28;20222;-47
2023/09/03 03:53:00;;;;;;;7.53;6.93;;;15.80;99.90;;;;;;5218752;28;20179;-45
2023/09/03 03:55:30;;;;;;;9.47;7.90;;;15.70;99.90;;;;;;5221879;28;20439;-46
2023/09/03 03:58:01;;;;;;;8.23;7.37;;;15.70;99.90;;;;;;5241527;28;20247;-47
2023/09/03 04:00:32;;;;;;;10.67;7.47;;;15.70;99.90;;;;;;5226634;28;20194;-45
2023/09/03 04:03:02;;;;;;;8.53;7.03;;;15.60;99.90;;;;;;5218045;28;20282;-47
2023/09/03 04:05:33;;;;;;;8.87;7.83;;;15.70;99.90;;;;;;5223947;28;20210;-46
2023/09/03 04:08:04;;;;;;;11.43;7.93;;;15.60;99.90;;;;;;5220182;28;20210;-45
2023/09/03 04:10:34;;;;;;;7.83;7.03;;;15.60;99.90;;;;;;5219546;28;20175;-47
2023/09/03 04:13:05;;;;;;;8.83;6.93;;;15.50;99.90;;;;;;5228301;28;20183;-49
2023/09/03 04:15:37;;;;;;;16.60;7.83;;;15.50;99.90;;;;;;5230067;28;20266;-45
2023/09/03 04:18:08;;;;;;;10.37;7.17;;;15.50;99.90;;;;;;5227941;28;20766;-45
2023/09/03 04:20:38;;;;;;;8.80;7.07;;;15.40;99.90;;;;;;5224637;28;20516;-46
2023/09/03 04:23:09;;;;;;;9.63;7.20;;;15.30;99.90;;;;;;5221134;28;20205;-46
2023/09/03 04:25:40;;;;;;;9.47;6.43;;;15.30;99.90;;;;;;5210525;28;20194;-45
2023/09/03 04:28:10;;;;;;;7.10;6.47;;;15.30;99.90;;;;;;5218942;28;20230;-46
2023/09/03 04:30:41;;;;;;;10.30;7.13;;;15.30;99.90;;;;;;5228139;28;20743;-44
2023/09/03 04:33:12;;;;;;;7.43;6.43;;;15.30;99.90;;;;;;5221560;28;20175;-45
2023/09/03 04:35:42;;;;;;;7.93;6.63;;;15.30;99.90;;;;;;5220313;28;20184;-45
2023/09/03 04:38:13;;;;;;;7.10;6.40;;;15.30;99.90;;;;;;5225736;28;20558;-45
2023/09/03 04:40:44;;;;;;;5.47;4.97;;;15.30;99.90;;;;;;5226576;28;20271;-45
2023/09/03 04:43:15;;;;;;;5.63;5.23;;;15.30;99.90;;;;;;5226065;28;20194;-46
2023/09/03 04:45:47;;;;;;;12.63;5.80;;;15.30;99.90;;;;;;5218588;28;20198;-45
2023/09/03 04:48:19;;;;;;;6.93;5.40;;;15.40;99.90;;;;;;5228640;28;20650;-45
2023/09/03 04:50:49;;;;;;;12.10;6.10;;;15.40;99.90;;;;;;5220376;28;20430;-48
2023/09/03 04:53:20;;;;;;;7.27;5.60;;;15.40;99.90;;;;;;5226068;28;20444;-45
2023/09/03 04:55:51;;;;;;;5.93;5.27;;;15.40;99.90;;;;;;5224326;28;20186;-48
2023/09/03 04:58:21;;;;;;;12.43;5.90;;;15.50;99.90;;;;;;5227942;28;20214;-47
2023/09/03 05:00:52;;;;;;;6.10;5.50;;;15.50;99.90;;;;;;5225117;28;20673;-47
2023/09/03 05:03:22;;;;;;;7.03;5.50;;;15.50;99.90;;;;;;5217379;28;20202;-48
2023/09/03 05:05:53;;;;;;;6.17;5.67;;;15.60;99.90;;;;;;5223915;28;20191;-46
2023/09/03 05:08:24;;;;;;;8.17;5.37;;;15.60;99.90;;;;;;5220493;28;20219;-47
2023/09/03 05:10:54;;;;;;;6.63;4.53;;;15.60;99.90;;;;;;5222145;28;20289;-46
2023/09/03 05:13:25;;;;;;;6.10;5.67;;;15.60;99.90;;;;;;5225182;28;20192;-45
2023/09/03 05:15:55;;;;;;;6.27;5.63;;;15.60;99.90;;;;;;5228618;28;20294;-47
2023/09/03 05:18:26;;;;;;;5.50;5.13;;;15.60;99.90;;;;;;5216811;28;20557;-47
2023/09/03 05:20:57;;;;;;;6.00;4.33;;;15.60;99.90;;;;;;5221897;28;20211;-47
2023/09/03 05:23:27;;;;;;;11.60;5.63;;;15.60;99.90;;;;;;5221114;28;20244;-47
2023/09/03 05:25:58;;;;;;;9.17;4.80;;;15.70;99.90;;;;;;5222767;28;20216;-47
2023/09/03 05:28:32;;;;;;;16.40;5.43;;;15.80;99.90;;;;;;5223246;28;20258;-47
2023/09/03 05:31:02;;;;;;;4.40;4.10;;;15.90;99.90;;;;;;5225421;28;20179;-45
2023/09/03 05:33:33;;;;;;;6.97;5.13;;;16.00;99.90;;;;;;5227993;28;20435;-47
2023/09/03 05:36:04;;;;;;;4.23;3.90;;;16.20;99.90;;;;;;5220851;28;20358;-48
2023/09/03 05:38:35;;;;;;;6.27;5.27;;;16.20;99.90;;;;;;5223381;28;20286;-48
2023/09/03 05:41:06;;;;;;;5.17;4.67;;;16.00;99.90;;;;;;5227621;28;20429;-47
2023/09/03 05:43:37;;;;;;;7.07;4.70;;;16.00;99.90;;;;;;5233400;28;20179;-53
2023/09/03 05:46:08;;;;;;;5.37;4.50;;;15.90;99.90;;;;;;5246138;28;20532;-45
2023/09/03 05:48:39;;;;;;;4.50;4.20;;;15.90;99.90;;;;;;5225051;28;20548;-46
2023/09/03 05:51:09;;;;;;;3.97;3.70;;;15.90;99.90;;;;;;5226784;28;20260;-46
2023/09/03 05:53:40;;;;;;;5.07;4.70;;;16.00;99.90;;;;;;5240475;28;20187;-45
2023/09/03 05:56:12;;;;;;;5.07;4.50;;;16.10;99.90;;;;;;5222916;28;20186;-45
2023/09/03 05:58:42;;;;;;;8.77;4.67;;;16.10;99.90;;;;;;5224097;28;22017;-46
2023/09/03 06:01:13;;;;;;;6.07;4.20;;;16.30;99.90;;;;;;5221524;28;20481;-45
2023/09/03 06:03:44;;;;;;;4.73;4.13;;;16.30;99.90;;;;;;5223259;28;20179;-45
2023/09/03 06:06:14;;;;;;;5.03;4.57;;;16.30;99.90;;;;;;5216815;28;20646;-45
2023/09/03 06:08:45;;;;;;;3.70;3.50;;;16.50;99.90;;;;;;5217409;28;20207;-46
2023/09/03 06:11:15;;;;;;;6.20;3.70;;;16.90;99.90;;;;;;5219994;28;20186;-48
2023/09/03 06:13:46;;;;;;;5.43;4.20;;;17.10;99.90;;;;;;5224912;28;20175;-47
2023/09/03 06:16:17;;;;;;;5.67;3.27;;;17.20;99.90;;;;;;5224047;28;20178;-47
2023/09/03 06:18:47;;;;;;;5.17;3.37;;;17.70;99.90;;;;;;5225962;28;20255;-47
2023/09/03 06:21:18;;;;;;;6.70;3.10;;;19.20;99.90;;;;;;5230274;28;20191;-47
2023/09/03 06:23:49;;;;;;;3.17;2.70;;;21.90;99.90;;;;;;5243805;28;20183;-49
2023/09/03 06:26:19;;;;;;;3.87;2.40;;;24.10;99.90;;;;;;5223480;28;20180;-45
2023/09/03 06:28:50;;;;;;;5.60;2.80;;;23.90;97.70;;;;;;5229375;28;20214;-49
2023/09/03 06:31:21;;;;;;;5.47;3.00;;;22.10;99.80;;;;;;5234678;28;20608;-48
2023/09/03 06:33:53;;;;;;;2.70;2.50;;;20.40;99.90;;;;;;5223998;28;20274;-47
2023/09/03 06:36:25;;;;;;;8.40;2.60;;;19.80;99.90;;;;;;5238083;28;20246;-47
2023/09/03 06:38:55;;;;;;;2.60;2.50;;;19.30;99.90;;;;;;5223146;28;21344;-47
2023/09/03 06:41:26;;;;;;;2.87;2.00;;;18.90;99.90;;;;;;5220604;28;20433;-47
2023/09/03 06:43:57;;;;;;;3.90;2.63;;;19.30;99.90;;;;;;5226253;28;20187;-46
2023/09/03 06:46:27;;;;;;;3.63;2.30;;;20.30;99.90;;;;;;5226653;28;20191;-46
2023/09/03 06:48:58;;;;;;;4.80;2.20;;;22.80;99.90;;;;;;5220149;28;20657;-49
2023/09/03 06:51:28;;;;;;;5.43;2.43;;;24.20;99.90;;;;;;5231291;28;20186;-46
2023/09/03 06:53:59;;;;;;;4.00;2.00;;;24.50;96.60;;;;;;5222577;28;20593;-47
2023/09/03 06:56:30;;;;;;;5.53;1.83;;;24.70;94.60;;;;;;5225439;28;20322;-48
2023/09/03 06:59:01;;;;;;;4.73;2.23;;;24.60;92.80;;;;;;5266249;22;20263;-46
2023/09/03 07:01:31;;;;;;;2.87;2.43;;;24.70;92.30;;;;;;5262158;28;20204;-46
2023/09/03 07:04:02;;;;;;;2.17;2.03;;;26.00;90.50;;;;;;5260924;28;20239;-45
2023/09/03 07:06:33;;;;;;;2.33;2.23;;;28.00;78.50;;;;;;5256791;28;20710;-46
2023/09/03 07:09:03;;;;;;;1.90;1.70;;;28.40;69.60;;;;;;5247142;28;20654;-45
2023/09/03 07:11:34;;;;;;;2.97;2.10;;;28.30;62.20;;;;;;5244750;28;20181;-47
2023/09/03 07:14:05;;;;;;;7.20;2.20;;;27.60;63.70;;;;;;5245132;28;20206;-45
2023/09/03 07:16:35;;;;;;;1.87;1.77;;;26.30;65.10;;;;;;5243412;28;20209;-46
2023/09/03 07:19:06;;;;;;;2.50;1.90;;;25.00;70.00;;;;;;5247364;28;20207;-47
2023/09/03 07:21:37;;;;;;;1.90;1.80;;;25.20;71.40;;;;;;5245363;28;20320;-46
2023/09/03 07:24:07;;;;;;;1.60;1.50;;;25.20;70.70;;;;;;5237586;28;20202;-46
2023/09/03 07:26:38;;;;;;;6.63;2.20;;;24.40;71.40;;;;;;5240601;28;20196;-46
2023/09/03 07:29:09;;;;;;;1.90;1.80;;;23.20;74.90;;;;;;5243785;28;20259;-46
2023/09/03 07:31:43;;;;;;;3.93;2.20;;;22.40;77.40;;;;;;5245362;28;20186;-45
2023/09/03 07:34:14;;;;;;;1.67;1.47;;;21.50;81.90;;;;;;5253205;28;20560;-46
2023/09/03 07:36:45;;;;;;;2.30;1.77;;;21.40;84.50;;;;;;5248226;28;20527;-46
2023/09/03 07:39:15;;;;;;;5.40;1.80;;;22.00;85.60;;;;;;5247484;28;20214;-47
2023/09/03 07:41:46;;;;;;;1.47;1.37;;;22.80;81.60;;;;;;5247842;28;20273;-47
2023/09/03 07:44:17;;;;;;;1.60;1.50;;;23.60;78.90;;;;;;5233677;28;20300;-48
2023/09/03 07:46:48;;;;;;;4.93;1.30;;;25.10;74.60;;;;;;5249279;28;20213;-46
2023/09/03 07:49:18;;;;;;;2.30;1.80;;;25.00;70.70;;;;;;5249909;28;20198;-46
2023/09/03 07:51:49;;;;;;;1.27;1.17;;;23.90;71.70;;;;;;5249099;28;20532;-47
2023/09/03 07:54:20;;;;;;;8.97;2.20;;;22.90;75.20;;;;;;5244731;28;20197;-45
2023/09/03 07:56:54;;;;;;;2.90;1.60;;;22.30;78.40;;;;;;5246708;28;20212;-46
2023/09/03 07:59:25;;;;;;;2.93;1.73;;;22.00;77.90;;;;;;5246424;28;20197;-46
2023/09/03 08:01:58;;;;;;;6.77;2.37;;;22.00;79.50;;;;;;5250497;28;20760;-46
2023/09/03 08:04:29;;;;;;;2.83;1.70;;;21.80;79.20;;;;;;5250067;28;20270;-46
2023/09/03 08:07:00;;;;;;;1.70;1.60;;;21.60;79.30;;;;;;5235615;28;20527;-46
2023/09/03 08:09:31;;;;;;;2.63;1.70;;;21.30;80.10;;;;;;5239904;28;20244;-47
2023/09/03 08:12:01;;;;;;;2.13;1.40;;;21.10;81.70;;;;;;5244881;28;21155;-46
2023/09/03 08:14:32;;;;;;;4.03;2.17;;;21.20;82.40;;;;;;5247796;28;20190;-48
2023/09/03 08:17:03;;;;;;;1.23;1.20;;;21.30;81.90;;;;;;5254152;28;20194;-47
2023/09/03 08:19:34;;;;;;;1.53;1.47;;;21.70;81.80;;;;;;5246469;28;20205;-46
2023/09/03 08:22:05;;;;;;;1.67;1.57;;;21.90;79.50;;;;;;5244010;28;20202;-47
2023/09/03 08:24:35;;;;;;;6.00;1.30;;;21.90;79.60;;;;;;5243771;28;20433;-47
2023/09/03 08:27:06;;;;;;;1.50;1.40;;;22.20;78.40;;;;;;5245139;28;20933;-46
2023/09/03 08:29:37;;;;;;;1.80;1.70;;;22.20;76.50;;;;;;5246023;28;20210;-46
2023/09/03 08:32:07;;;;;;;3.23;1.80;;;22.00;76.30;;;;;;5245208;28;20182;-48
2023/09/03 08:34:38;;;;;;;1.87;1.63;;;22.30;77.50;;;;;;5248702;28;20247;-46
2023/09/03 08:37:09;;;;;;;3.10;1.50;;;22.20;75.80;;;;;;5247754;28;20224;-46
2023/09/03 08:39:39;;;;;;;1.40;1.40;;;22.40;76.40;;;;;;5241250;28;20926;-46
2023/09/03 08:42:14;;;;;;;2.10;1.60;;;22.60;75.00;;;;;;5235992;28;20182;-47
2023/09/03 08:44:53;;;;;;;5.57;2.40;;;22.30;75.60;;;;;;5237009;28;20185;-47
2023/09/03 08:47:24;;;;;;;3.80;2.17;;;21.70;76.90;;;;;;5242584;28;20464;-46
2023/09/03 08:49:55;;;;;;;1.57;1.47;;;21.50;77.30;;;;;;5246617;28;20476;-46
2023/09/03 08:52:26;;;;;;;2.23;2.17;;;21.40;78.10;;;;;;5242601;28;20194;-46
2023/09/03 08:55:00;;;;;;;6.73;2.40;;;21.80;77.90;;;;;;5245946;28;20539;-46
2023/09/03 08:57:34;;;;;;;5.10;2.20;;;22.50;77.20;;;;;;5250370;28;20586;-46
2023/09/03 09:00:06;;;;;;;3.70;2.07;;;22.70;75.10;;;;;;5241832;28;20436;-46
2023/09/03 09:02:37;;;;;;;1.47;1.30;;;22.70;75.40;;;;;;5244087;28;20436;-47
2023/09/03 09:05:09;;;;;;;2.27;1.90;;;22.60;74.50;;;;;;5242181;28;20513;-47
2023/09/03 09:07:40;;;;;;;1.30;1.20;;;22.40;73.40;;;;;;5244652;28;20995;-48
2023/09/03 09:10:13;;;;;;;2.00;1.17;;;22.30;73.90;;;;;;5241624;28;20528;-46
2023/09/03 09:12:56;;;;;;;2.50;1.17;;;22.20;70.30;;;;;;5242076;28;20194;-46
2023/09/03 09:15:26;;;;;;;1.17;1.10;;;22.10;71.20;;;;;;5243854;28;20448;-46
2023/09/03 09:17:57;;;;;;;1.33;1.20;;;22.20;70.60;;;;;;5243943;28;20570;-46
2023/09/03 09:20:31;;;;;;;3.10;1.33;;;22.00;71.30;;;;;;5241442;28;20185;-46
2023/09/03 09:23:02;;;;;;;0.90;0.90;;;21.50;72.80;;;;;;5244599;28;20548;-46
2023/09/03 09:25:34;;;;;;;6.20;1.20;;;21.40;73.20;;;;;;5244752;28;20421;-46
2023/09/03 09:28:12;;;;;;;2.00;1.47;;;21.20;73.90;;;;;;5243826;28;20676;-46
2023/09/03 09:30:58;;;;;;;0.90;0.90;;;21.20;73.80;;;;;;5241823;28;20482;-48
2023/09/03 09:33:28;;;;;;;1.23;1.20;;;21.60;74.60;;;;;;5231864;28;20455;-47
2023/09/03 09:36:11;;;;;;;1.67;0.83;;;21.60;73.50;;;;;;5229021;28;20524;-47
2023/09/03 09:38:42;;;;;;;2.40;1.10;;;21.40;74.80;;;;;;5231057;28;20297;-47
2023/09/03 09:41:23;;;;;;;3.33;1.47;;;21.30;74.60;;;;;;5230820;28;20600;-47
2023/09/03 09:43:54;;;;;;;1.23;1.10;;;21.40;75.10;;;;;;5243456;28;20296;-48
2023/09/03 09:46:26;;;;;;;1.23;1.23;;;21.50;75.00;;;;;;5245264;28;20966;-46
2023/09/03 09:49:02;;;;;;;1.80;1.17;;;21.50;72.10;;;;;;5243905;28;20241;-47
2023/09/03 09:51:33;;;;;;;0.93;0.93;;;21.50;73.00;;;;;;5240724;28;20511;-47
2023/09/03 09:54:04;;;;;;;1.23;1.03;;;21.30;72.30;;;;;;5247804;28;20537;-46
2023/09/03 09:56:35;;;;;;;1.70;0.93;;;21.50;72.30;;;;;;5233996;28;20772;-45
2023/09/03 09:59:10;;;;;;;0.97;0.97;;;21.40;70.70;;;;;;5239640;28;20218;-47
2023/09/03 10:01:43;;;;;;;1.20;1.10;;;21.60;70.90;;;;;;5235402;28;20432;-47
2023/09/03 10:04:24;;;;;;;11.00;1.20;;;21.50;71.10;;;;;;5237056;28;20447;-44
2023/09/03 10:06:55;;;;;;;1.57;1.47;;;21.30;71.50;;;;;;5239525;28;20486;-45
2023/09/03 10:09:26;;;;;;;1.23;1.10;;;21.10;72.30;;;;;;5239319;28;20609;-47
2023/09/03 10:11:57;;;;;;;3.13;1.37;;;21.30;72.20;;;;;;5237614;28;20535;-48
2023/09/03 10:14:27;;;;;;;1.40;1.40;;;21.50;70.90;;;;;;5235083;28;20178;-47
2023/09/03 10:17:03;;;;;;;3.17;1.60;;;21.70;70.40;;;;;;5239748;28;20247;-48
2023/09/03 10:19:44;;;;;;;12.07;4.10;;;22.00;70.40;;;;;;5237935;28;20189;-47
2023/09/03 10:22:18;;;;;;;5.30;3.10;;;21.50;71.40;;;;;;5242524;28;20456;-48
2023/09/03 10:24:57;;;;;;;3.33;1.70;;;21.40;72.50;;;;;;5240062;28;20519;-47
2023/09/03 10:27:31;;;;;;;1.50;1.40;;;21.60;73.60;;;;;;5236327;28;20495;-47
2023/09/03 10:30:07;;;;;;;3.00;2.10;;;21.80;71.60;;;;;;5244058;28;20464;-47
2023/09/03 10:32:38;;;;;;;7.00;1.70;;;22.00;72.00;;;;;;5227387;28;20440;-47
2023/09/03 10:35:10;;;;;;;1.27;1.20;;;22.10;69.60;;;;;;5240978;28;20429;-49
2023/09/03 10:37:41;;;;;;;1.40;1.30;;;22.00;69.10;;;;;;5239451;28;20621;-47
2023/09/03 10:40:38;;;;;;;4.97;1.60;;;22.00;69.80;;;;;;5231601;28;20433;-47
2023/09/03 10:43:15;;;;;;;2.30;1.70;;;21.90;69.90;;;;;;5236712;28;20453;-47
2023/09/03 10:46:05;;;;;;;3.03;1.40;;;21.80;71.30;;;;;;5238464;28;20455;-48
2023/09/03 10:48:36;;;;;;;2.30;1.77;;;21.50;72.30;;;;;;5238960;28;20522;-47
2023/09/03 10:51:07;;;;;;;6.00;2.23;;;21.40;72.50;;;;;;5236948;28;20440;-47
2023/09/03 10:53:39;;;;;;;1.50;1.40;;;21.30;71.20;;;;;;5237898;28;21465;-47
2023/09/03 10:56:17;;;;;;;1.23;1.23;;;21.50;73.00;;;;;;5239448;28;20186;-48
2023/09/03 10:58:58;;;;;;;1.73;1.40;;;21.50;72.70;;;;;;5240825;28;20475;-48
2023/09/03 11:01:31;;;;;;;4.37;2.20;;;21.50;71.40;;;;;;5235929;28;20497;-48
2023/09/03 11:04:03;;;;;;;2.37;2.13;;;21.80;71.40;;;;;;5240411;28;20479;-48
2023/09/03 11:06:35;;;;;;;2.80;1.60;;;22.00;70.50;;;;;;5237650;28;20440;-47
2023/09/03 11:09:08;;;;;;;3.50;1.87;;;22.20;69.30;;;;;;5238097;28;20816;-48
2023/09/03 11:11:39;;;;;;;5.40;3.30;;;22.40;66.30;;;;;;5241255;28;21005;-48
2023/09/03 11:14:13;;;;;;;5.40;2.00;;;22.80;66.20;;;;;;5237918;28;20456;-48
2023/09/03 11:16:43;;;;;;;2.83;1.80;;;22.90;67.60;;;;;;5238078;28;20189;-47
2023/09/03 11:19:14;;;;;;;1.60;1.50;;;23.00;66.20;;;;;;5254544;28;20464;-47
2023/09/03 11:21:44;;;;;;;1.40;1.30;;;22.70;66.30;;;;;;5237596;28;20250;-47
2023/09/03 11:24:16;;;;;;;16.23;4.97;;;22.40;66.00;;;;;;5236534;28;20195;-48
2023/09/03 11:27:04;;;;;;;6.47;4.43;;;22.60;66.30;;;;;;5240972;28;20189;-48
2023/09/03 11:29:34;;;;;;;1.10;1.00;;;22.70;65.80;;;;;;5239273;28;20990;-48
2023/09/03 11:32:05;;;;;;;7.93;5.27;;;22.80;65.20;;;;;;5235963;28;20475;-49
2023/09/03 11:34:36;;;;;;;2.30;1.80;;;23.10;65.50;;;;;;5241933;28;20209;-48
2023/09/03 11:37:06;;;;;;;2.50;2.30;;;22.80;64.00;;;;;;5236289;28;20213;-49
2023/09/03 11:39:37;;;;;;;2.03;1.87;;;23.00;63.60;;;;;;5235365;28;20574;-48
2023/09/03 11:42:12;;;;;;;2.40;1.90;;;23.00;64.40;;;;;;5237270;28;20194;-47
2023/09/03 11:44:49;;;;;;;4.27;3.67;;;23.40;64.40;;;;;;5258708;28;20201;-47
2023/09/03 11:47:20;;;;;;;7.80;1.90;;;23.80;62.70;;;;;;5241552;28;20541;-48
2023/09/03 11:49:50;;;;;;;2.20;1.33;;;23.40;61.30;;;;;;5238741;28;20504;-48
2023/09/03 11:52:21;;;;;;;1.70;1.57;;;22.80;62.40;;;;;;5242034;28;20317;-47
2023/09/03 11:54:55;;;;;;;3.20;1.63;;;22.90;63.90;;;;;;5241786;28;20182;-48
2023/09/03 11:57:25;;;;;;;5.33;1.63;;;22.60;64.40;;;;;;5242517;28;20693;-48
2023/09/03 11:59:57;;;;;;;1.50;1.40;;;22.40;65.20;;;;;;5238837;28;20441;-48
2023/09/03 12:02:28;;;;;;;2.20;2.00;;;22.60;65.10;;;;;;5241965;28;20178;-48
2023/09/03 12:05:00;;;;;;;3.80;1.10;;;22.60;65.40;;;;;;5238906;28;20440;-47
2023/09/03 12:07:31;;;;;;;1.20;1.10;;;22.50;64.50;;;;;;5242185;28;20536;-47
2023/09/03 12:10:02;;;;;;;1.80;1.70;;;22.60;65.10;;;;;;5235305;28;20489;-48
2023/09/03 12:12:32;;;;;;;1.43;1.17;;;22.80;65.40;;;;;;5237410;28;20631;-47
2023/09/03 12:15:17;;;;;;;3.27;1.73;;;22.70;65.10;;;;;;5232041;28;20175;-47
2023/09/03 12:17:48;;;;;;;4.67;2.47;;;22.70;65.40;;;;;;5239402;28;20214;-49
2023/09/03 12:20:35;;;;;;;1.77;1.67;;;22.80;65.10;;;;;;5235880;28;21236;-47
2023/09/03 12:23:10;;;;;;;1.93;1.70;;;22.60;65.00;;;;;;5242187;28;20872;-48
2023/09/03 12:25:42;;;;;;;1.57;1.23;;;22.60;65.20;;;;;;5240626;28;20436;-47
2023/09/03 12:28:13;;;;;;;1.60;1.40;;;22.50;65.40;;;;;;5234564;28;20467;-47
2023/09/03 12:30:58;;;;;;;1.63;1.53;;;22.20;65.40;;;;;;5230026;28;20725;-48
2023/09/03 12:33:32;;;;;;;3.60;2.50;;;22.30;65.50;;;;;;5240399;28;20658;-48
2023/09/03 12:36:08;;;;;;;1.93;1.83;;;22.20;65.60;;;;;;5235882;28;20868;-47
2023/09/03 12:38:54;;;;;;;1.17;1.17;;;22.00;66.00;;;;;;5234066;28;20448;-49
2023/09/03 12:41:27;;;;;;;2.20;2.03;;;22.10;66.00;;;;;;5242412;28;20443;-47
2023/09/03 12:44:08;;;;;;;2.23;1.43;;;22.10;65.90;;;;;;5237306;28;20444;-48
2023/09/03 12:46:39;;;;;;;10.90;6.63;;;21.90;65.70;;;;;;5237579;28;20441;-47
2023/09/03 12:49:10;;;;;;;2.23;2.13;;;22.00;65.90;;;;;;5228476;28;20511;-47
2023/09/03 12:51:41;;;;;;;4.03;1.37;;;22.20;66.20;;;;;;5238535;28;20184;-47
2023/09/03 12:54:12;;;;;;;1.57;1.47;;;22.10;66.00;;;;;;5234241;28;20194;-48
2023/09/03 12:56:43;;;;;;;2.13;1.90;;;22.10;66.10;;;;;;5241403;28;21651;-48
2023/09/03 12:59:14;;;;;;;2.00;1.80;;;22.30;65.90;;;;;;5262367;22;20564;-49
2023/09/03 13:01:45;;;;;;;1.93;1.77;;;22.50;65.80;;;;;;5262927;28;20189;-47
2023/09/03 13:04:16;;;;;;;1.57;1.47;;;22.50;65.80;;;;;;5262530;28;20197;-48
2023/09/03 13:06:47;;;;;;;2.23;2.13;;;22.50;65.20;;;;;;5260223;28;20186;-48
2023/09/03 13:09:18;;;;;;;1.73;1.63;;;22.50;64.70;;;;;;5244445;28;21428;-48
2023/09/03 13:11:49;;;;;;;1.60;1.50;;;22.50;63.20;;;;;;5231706;28;21757;-48